sensor_id;sensor_type;location;lat;lon;timestamp;temperature;humidity
13898;DHT22;7019;50.766;4.474;2023-09-30T00:00:28;11.40;99.90
13898;DHT22;7019;50.766;4.474;2023-09-30T00:02:55;11.30;99.90
13898;DHT22;7019;50.766;4.474;2023-09-30T00:05:22;11.30;99.90
13898;DHT22;7019;50.766;4.474;2023-09-30T00:07:50;11.30;99.90
13898;DHT22;7019;50.766;4.474;2023-09-30T00:10:17;11.20;99.90
13898;DHT22;7019;50.766;4.474;2023-09-30T00:12:44;11.20;99.90
13898;DHT22;7019;50.766;4.474;2023-09-30T00:15:12;11.20;99.90
13898;DHT22;7019;50.766;4.474;2023-09-30T00:17:39;11.10;99.90
13898;DHT22;7019;50.766;4.474;2023-09-30T00:20:07;11.10;99.90
13898;DHT22;7019;50.766;4.474;2023-09-30T00:22:34;11.00;99.90
13898;DHT22;7019;50.766;4.474;2023-09-30T00:25:03;11.00;99.90
13898;DHT22;7019;50.766;4.474;2023-09-30T00:27:30;11.00;99.90
13898;DHT22;7019;50.766;4.474;2023-09-30T00:29:58;10.90;99.90
13898;DHT22;7019;50.766;4.474;2023-09-30T00:32:25;10.90;99.90
13898;DHT22;7019;50.766;4.474;2023-09-30T00:34:52;10.90;99.90
13898;DHT22;7019;50.766;4.474;2023-09-30T00:37:19;10.80;99.90
13898;DHT22;7019;50.766;4.474;2023-09-30T00:39:46;10.70;99.90
13898;DHT22;7019;50.766;4.474;2023-09-30T00:42:15;10.80;99.90
13898;DHT22;7019;50.766;4.474;2023-09-30T00:44:42;10.80;99.90
13898;DHT22;7019;50.766;4.474;2023-09-30T00:47:09;10.80;99.90
13898;DHT22;7019;50.766;4.474;2023-09-30T00:49:36;10.80;99.90
13898;DHT22;7019;50.766;4.474;2023-09-30T00:52:04;10.80;99.90
13898;DHT22;7019;50.766;4.474;2023-09-30T00:54:31;10.90;99.90
13898;DHT22;7019;50.766;4.474;2023-09-30T00:56:59;10.90;99.90
13898;DHT22;7019;50.766;4.474;2023-09-30T00:59:29;10.90;99.90
13898;DHT22;7019;50.766;4.474;2023-09-30T01:01:59;10.70;99.90
13898;DHT22;7019;50.766;4.474;2023-09-30T01:04:27;10.70;99.90
13898;DHT22;7019;50.766;4.474;2023-09-30T01:06:54;10.60;99.90
13898;DHT22;7019;50.766;4.474;2023-09-30T01:09:23;10.60;99.90
13898;DHT22;7019;50.766;4.474;2023-09-30T01:11:51;10.60;99.90
13898;DHT22;7019;50.766;4.474;2023-09-30T01:14:24;10.70;99.90
13898;DHT22;7019;50.766;4.474;2023-09-30T01:16:53;10.80;99.90
13898;DHT22;7019;50.766;4.474;2023-09-30T01:19:20;10.80;99.90
13898;DHT22;7019;50.766;4.474;2023-09-30T01:21:52;10.70;99.90
13898;DHT22;7019;50.766;4.474;2023-09-30T01:24:20;10.60;99.90
13898;DHT22;7019;50.766;4.474;2023-09-30T01:26:48;10.60;99.90
13898;DHT22;7019;50.766;4.474;2023-09-30T01:29:15;10.70;99.90
13898;DHT22;7019;50.766;4.474;2023-09-30T01:31:42;10.80;99.90
13898;DHT22;7019;50.766;4.474;2023-09-30T01:34:13;10.80;99.90
13898;DHT22;7019;50.766;4.474;2023-09-30T01:36:41;10.90;99.90
13898;DHT22;7019;50.766;4.474;2023-09-30T01:39:10;10.90;99.90
13898;DHT22;7019;50.766;4.474;2023-09-30T01:41:37;10.90;99.90
13898;DHT22;7019;50.766;4.474;2023-09-30T01:44:05;10.80;99.90
13898;DHT22;7019;50.766;4.474;2023-09-30T01:46:32;10.70;99.90
13898;DHT22;7019;50.766;4.474;2023-09-30T01:49:00;10.70;99.90
13898;DHT22;7019;50.766;4.474;2023-09-30T01:51:27;10.70;99.90
13898;DHT22;7019;50.766;4.474;2023-09-30T01:53:55;10.70;99.90
13898;DHT22;7019;50.766;4.474;2023-09-30T01:56:24;10.70;99.90
13898;DHT22;7019;50.766;4.474;2023-09-30T01:58:51;10.70;99.90
13898;DHT22;7019;50.766;4.474;2023-09-30T02:01:18;10.70;99.90
13898;DHT22;7019;50.766;4.474;2023-09-30T02:03:45;10.80;99.90
13898;DHT22;7019;50.766;4.474;2023-09-30T02:06:12;10.80;99.90
13898;DHT22;7019;50.766;4.474;2023-09-30T02:08:39;10.80;99.90
13898;DHT22;7019;50.766;4.474;2023-09-30T02:11:07;10.80;99.90
13898;DHT22;7019;50.766;4.474;2023-09-30T02:13:36;10.80;99.90
13898;DHT22;7019;50.766;4.474;2023-09-30T02:16:03;10.90;99.90
13898;DHT22;7019;50.766;4.474;2023-09-30T02:18:30;10.80;99.90
13898;DHT22;7019;50.766;4.474;2023-09-30T02:20:59;10.80;99.90
13898;DHT22;7019;50.766;4.474;2023-09-30T02:23:26;10.80;99.90
13898;DHT22;7019;50.766;4.474;2023-09-30T02:25:53;10.70;99.90
13898;DHT22;7019;50.766;4.474;2023-09-30T02:28:20;10.60;99.90
13898;DHT22;7019;50.766;4.474;2023-09-30T02:30:49;10.60;99.90
13898;DHT22;7019;50.766;4.474;2023-09-30T02:33:16;10.60;99.90
13898;DHT22;7019;50.766;4.474;2023-09-30T02:35:44;10.50;99.90
13898;DHT22;7019;50.766;4.474;2023-09-30T02:38:12;10.40;99.90
13898;DHT22;7019;50.766;4.474;2023-09-30T02:40:41;10.40;99.90
13898;DHT22;7019;50.766;4.474;2023-09-30T02:43:12;10.40;99.90
13898;DHT22;7019;50.766;4.474;2023-09-30T02:45:39;10.40;99.90
13898;DHT22;7019;50.766;4.474;2023-09-30T02:48:08;10.40;99.90
13898;DHT22;7019;50.766;4.474;2023-09-30T02:50:35;10.40;99.90
13898;DHT22;7019;50.766;4.474;2023-09-30T02:53:03;10.40;99.90
13898;DHT22;7019;50.766;4.474;2023-09-30T02:55:30;10.40;99.90
13898;DHT22;7019;50.766;4.474;2023-09-30T02:57:57;10.40;99.90
13898;DHT22;7019;50.766;4.474;2023-09-30T03:00:25;10.30;99.90
13898;DHT22;7019;50.766;4.474;2023-09-30T03:02:52;10.30;99.90
13898;DHT22;7019;50.766;4.474;2023-09-30T03:05:21;10.30;99.90
13898;DHT22;7019;50.766;4.474;2023-09-30T03:07:49;10.30;99.90
13898;DHT22;7019;50.766;4.474;2023-09-30T03:10:17;10.30;99.90
13898;DHT22;7019;50.766;4.474;2023-09-30T03:12:46;10.30;99.90
13898;DHT22;7019;50.766;4.474;2023-09-30T03:15:13;10.30;99.90
13898;DHT22;7019;50.766;4.474;2023-09-30T03:17:41;10.30;99.90
13898;DHT22;7019;50.766;4.474;2023-09-30T03:20:09;10.30;99.90
13898;DHT22;7019;50.766;4.474;2023-09-30T03:22:40;10.30;99.90
13898;DHT22;7019;50.766;4.474;2023-09-30T03:25:09;10.30;99.90
13898;DHT22;7019;50.766;4.474;2023-09-30T03:27:37;10.30;99.90
13898;DHT22;7019;50.766;4.474;2023-09-30T03:30:05;10.30;99.90
13898;DHT22;7019;50.766;4.474;2023-09-30T03:32:32;10.20;99.90
13898;DHT22;7019;50.766;4.474;2023-09-30T03:35:00;10.20;99.90
13898;DHT22;7019;50.766;4.474;2023-09-30T03:37:27;10.20;99.90
13898;DHT22;7019;50.766;4.474;2023-09-30T03:39:56;10.10;99.90
13898;DHT22;7019;50.766;4.474;2023-09-30T03:42:23;10.10;99.90
13898;DHT22;7019;50.766;4.474;2023-09-30T03:44:51;10.10;99.90
13898;DHT22;7019;50.766;4.474;2023-09-30T03:47:18;10.00;99.90
13898;DHT22;7019;50.766;4.474;2023-09-30T03:49:46;9.90;99.90
13898;DHT22;7019;50.766;4.474;2023-09-30T03:52:14;9.80;99.90
13898;DHT22;7019;50.766;4.474;2023-09-30T03:54:41;9.80;99.90
13898;DHT22;7019;50.766;4.474;2023-09-30T03:57:09;9.80;99.90
13898;DHT22;7019;50.766;4.474;2023-09-30T03:59:38;9.90;99.90
13898;DHT22;7019;50.766;4.474;2023-09-30T04:02:05;9.90;99.90
13898;DHT22;7019;50.766;4.474;2023-09-30T04:04:34;9.80;99.90
13898;DHT22;7019;50.766;4.474;2023-09-30T04:07:02;9.80;99.90
13898;DHT22;7019;50.766;4.474;2023-09-30T04:09:31;9.80;99.90
13898;DHT22;7019;50.766;4.474;2023-09-30T04:11:58;9.80;99.90
13898;DHT22;7019;50.766;4.474;2023-09-30T04:14:27;9.80;99.90
13898;DHT22;7019;50.766;4.474;2023-09-30T04:16:54;9.80;99.90
13898;DHT22;7019;50.766;4.474;2023-09-30T04:19:21;9.70;99.90
13898;DHT22;7019;50.766;4.474;2023-09-30T04:21:48;9.70;99.90
13898;DHT22;7019;50.766;4.474;2023-09-30T04:24:16;9.70;99.90
13898;DHT22;7019;50.766;4.474;2023-09-30T04:26:44;9.60;99.90
13898;DHT22;7019;50.766;4.474;2023-09-30T04:29:11;9.70;99.90
13898;DHT22;7019;50.766;4.474;2023-09-30T04:31:41;9.70;99.90
13898;DHT22;7019;50.766;4.474;2023-09-30T04:34:08;9.60;99.90
13898;DHT22;7019;50.766;4.474;2023-09-30T04:36:35;9.60;99.90
13898;DHT22;7019;50.766;4.474;2023-09-30T04:39:02;9.60;99.90
13898;DHT22;7019;50.766;4.474;2023-09-30T04:41:30;9.60;99.90
13898;DHT22;7019;50.766;4.474;2023-09-30T04:43:58;9.50;99.90
13898;DHT22;7019;50.766;4.474;2023-09-30T04:46:25;9.30;99.90
13898;DHT22;7019;50.766;4.474;2023-09-30T04:48:54;9.20;99.90
13898;DHT22;7019;50.766;4.474;2023-09-30T04:51:22;9.20;99.90
13898;DHT22;7019;50.766;4.474;2023-09-30T04:53:51;9.10;99.90
13898;DHT22;7019;50.766;4.474;2023-09-30T04:56:20;9.20;99.90
13898;DHT22;7019;50.766;4.474;2023-09-30T04:58:47;9.30;99.90
13898;DHT22;7019;50.766;4.474;2023-09-30T05:01:14;9.30;99.90
13898;DHT22;7019;50.766;4.474;2023-09-30T05:03:44;9.30;99.90
13898;DHT22;7019;50.766;4.474;2023-09-30T05:06:15;9.40;99.90
13898;DHT22;7019;50.766;4.474;2023-09-30T05:08:42;9.30;99.90
13898;DHT22;7019;50.766;4.474;2023-09-30T05:11:09;9.30;99.90
13898;DHT22;7019;50.766;4.474;2023-09-30T05:13:37;9.20;99.90
13898;DHT22;7019;50.766;4.474;2023-09-30T05:16:04;9.10;99.90
13898;DHT22;7019;50.766;4.474;2023-09-30T05:18:32;8.90;99.90
13898;DHT22;7019;50.766;4.474;2023-09-30T05:20:59;8.90;99.90
13898;DHT22;7019;50.766;4.474;2023-09-30T05:23:28;8.90;99.90
13898;DHT22;7019;50.766;4.474;2023-09-30T05:25:55;8.90;99.90
13898;DHT22;7019;50.766;4.474;2023-09-30T05:28:23;9.00;99.90
13898;DHT22;7019;50.766;4.474;2023-09-30T05:30:50;9.10;99.90
13898;DHT22;7019;50.766;4.474;2023-09-30T05:33:17;9.20;99.90
13898;DHT22;7019;50.766;4.474;2023-09-30T05:35:44;9.20;99.90
13898;DHT22;7019;50.766;4.474;2023-09-30T05:38:12;9.20;99.90
13898;DHT22;7019;50.766;4.474;2023-09-30T05:40:40;9.10;99.90
13898;DHT22;7019;50.766;4.474;2023-09-30T05:43:09;9.00;99.90
13898;DHT22;7019;50.766;4.474;2023-09-30T05:45:39;8.90;99.90
13898;DHT22;7019;50.766;4.474;2023-09-30T05:48:14;8.90;99.90
13898;DHT22;7019;50.766;4.474;2023-09-30T05:50:42;9.00;99.90
13898;DHT22;7019;50.766;4.474;2023-09-30T05:53:09;9.10;99.90
13898;DHT22;7019;50.766;4.474;2023-09-30T05:55:37;9.20;99.90
13898;DHT22;7019;50.766;4.474;2023-09-30T05:58:08;9.30;99.90
13898;DHT22;7019;50.766;4.474;2023-09-30T06:00:36;9.40;99.90
13898;DHT22;7019;50.766;4.474;2023-09-30T06:03:04;9.40;99.90
13898;DHT22;7019;50.766;4.474;2023-09-30T06:05:31;9.40;99.90
13898;DHT22;7019;50.766;4.474;2023-09-30T06:08:01;9.50;99.90
13898;DHT22;7019;50.766;4.474;2023-09-30T06:10:30;9.50;99.90
13898;DHT22;7019;50.766;4.474;2023-09-30T06:12:57;9.50;99.90
13898;DHT22;7019;50.766;4.474;2023-09-30T06:15:26;9.40;99.90
13898;DHT22;7019;50.766;4.474;2023-09-30T06:17:54;9.30;99.90
13898;DHT22;7019;50.766;4.474;2023-09-30T06:20:22;9.20;99.90
13898;DHT22;7019;50.766;4.474;2023-09-30T06:22:52;9.10;99.90
13898;DHT22;7019;50.766;4.474;2023-09-30T06:25:19;9.10;99.90
13898;DHT22;7019;50.766;4.474;2023-09-30T06:27:49;9.20;99.90
13898;DHT22;7019;50.766;4.474;2023-09-30T06:30:18;9.40;99.90
13898;DHT22;7019;50.766;4.474;2023-09-30T06:32:48;9.50;99.90
13898;DHT22;7019;50.766;4.474;2023-09-30T06:35:15;9.60;99.90
13898;DHT22;7019;50.766;4.474;2023-09-30T06:37:42;9.70;99.90
13898;DHT22;7019;50.766;4.474;2023-09-30T06:40:11;9.80;99.90
13898;DHT22;7019;50.766;4.474;2023-09-30T06:42:38;9.80;99.90
13898;DHT22;7019;50.766;4.474;2023-09-30T06:45:07;9.80;99.90
13898;DHT22;7019;50.766;4.474;2023-09-30T06:47:36;10.20;99.90
13898;DHT22;7019;50.766;4.474;2023-09-30T06:50:08;10.60;99.90
13898;DHT22;7019;50.766;4.474;2023-09-30T06:52:36;10.90;99.90
13898;DHT22;7019;50.766;4.474;2023-09-30T06:55:04;11.30;99.90
13898;DHT22;7019;50.766;4.474;2023-09-30T06:57:31;11.80;99.90
13898;DHT22;7019;50.766;4.474;2023-09-30T06:59:59;12.20;99.90
13898;DHT22;7019;50.766;4.474;2023-09-30T07:02:26;12.60;99.90
13898;DHT22;7019;50.766;4.474;2023-09-30T07:04:53;12.70;99.90
13898;DHT22;7019;50.766;4.474;2023-09-30T07:07:22;12.90;99.90
13898;DHT22;7019;50.766;4.474;2023-09-30T07:09:49;12.90;99.90
13898;DHT22;7019;50.766;4.474;2023-09-30T07:12:16;12.70;99.90
13898;DHT22;7019;50.766;4.474;2023-09-30T07:14:43;12.60;99.90
13898;DHT22;7019;50.766;4.474;2023-09-30T07:17:11;12.40;99.90
13898;DHT22;7019;50.766;4.474;2023-09-30T07:19:38;12.30;99.90
13898;DHT22;7019;50.766;4.474;2023-09-30T07:22:05;12.20;99.90
13898;DHT22;7019;50.766;4.474;2023-09-30T07:24:33;12.00;99.90
13898;DHT22;7019;50.766;4.474;2023-09-30T07:27:00;12.00;99.90
13898;DHT22;7019;50.766;4.474;2023-09-30T07:29:27;11.90;99.90
13898;DHT22;7019;50.766;4.474;2023-09-30T07:31:54;11.90;99.90
13898;DHT22;7019;50.766;4.474;2023-09-30T07:34:21;11.90;99.90
13898;DHT22;7019;50.766;4.474;2023-09-30T07:36:49;11.90;99.90
13898;DHT22;7019;50.766;4.474;2023-09-30T07:39:16;11.90;99.90
13898;DHT22;7019;50.766;4.474;2023-09-30T07:41:44;11.90;99.90
13898;DHT22;7019;50.766;4.474;2023-09-30T07:44:12;12.00;99.90
13898;DHT22;7019;50.766;4.474;2023-09-30T07:46:39;12.10;99.90
13898;DHT22;7019;50.766;4.474;2023-09-30T07:49:08;12.10;99.90
13898;DHT22;7019;50.766;4.474;2023-09-30T07:51:35;12.20;99.90
13898;DHT22;7019;50.766;4.474;2023-09-30T07:54:05;12.20;99.90
13898;DHT22;7019;50.766;4.474;2023-09-30T07:56:32;12.30;99.90
13898;DHT22;7019;50.766;4.474;2023-09-30T07:59:01;12.50;99.90
13898;DHT22;7019;50.766;4.474;2023-09-30T08:01:28;12.50;99.90
13898;DHT22;7019;50.766;4.474;2023-09-30T08:03:56;12.70;99.90
13898;DHT22;7019;50.766;4.474;2023-09-30T08:06:23;12.70;99.90
13898;DHT22;7019;50.766;4.474;2023-09-30T08:08:50;12.90;99.90
13898;DHT22;7019;50.766;4.474;2023-09-30T08:11:18;13.00;99.90
13898;DHT22;7019;50.766;4.474;2023-09-30T08:13:46;13.10;99.90
13898;DHT22;7019;50.766;4.474;2023-09-30T08:16:15;13.30;99.90
13898;DHT22;7019;50.766;4.474;2023-09-30T08:18:42;13.40;99.90
13898;DHT22;7019;50.766;4.474;2023-09-30T08:21:10;13.50;99.90
13898;DHT22;7019;50.766;4.474;2023-09-30T08:23:37;13.60;99.90
13898;DHT22;7019;50.766;4.474;2023-09-30T08:26:05;13.60;99.90
13898;DHT22;7019;50.766;4.474;2023-09-30T08:28:32;13.70;99.90
13898;DHT22;7019;50.766;4.474;2023-09-30T08:31:04;13.70;99.90
13898;DHT22;7019;50.766;4.474;2023-09-30T08:33:33;13.70;99.90
13898;DHT22;7019;50.766;4.474;2023-09-30T08:36:02;13.70;99.90
13898;DHT22;7019;50.766;4.474;2023-09-30T08:38:33;13.70;99.90
13898;DHT22;7019;50.766;4.474;2023-09-30T08:41:01;13.70;99.90
13898;DHT22;7019;50.766;4.474;2023-09-30T08:43:29;13.70;99.90
13898;DHT22;7019;50.766;4.474;2023-09-30T08:45:58;13.80;99.90
13898;DHT22;7019;50.766;4.474;2023-09-30T08:48:27;13.80;99.90
13898;DHT22;7019;50.766;4.474;2023-09-30T08:50:58;13.90;99.90
13898;DHT22;7019;50.766;4.474;2023-09-30T08:53:26;14.00;99.90
13898;DHT22;7019;50.766;4.474;2023-09-30T08:55:54;14.00;99.90
13898;DHT22;7019;50.766;4.474;2023-09-30T08:58:24;14.10;99.90
13898;DHT22;7019;50.766;4.474;2023-09-30T09:00:53;14.20;99.90
13898;DHT22;7019;50.766;4.474;2023-09-30T09:03:20;14.30;99.90
13898;DHT22;7019;50.766;4.474;2023-09-30T09:05:50;14.40;99.90
13898;DHT22;7019;50.766;4.474;2023-09-30T09:08:21;14.50;99.90
13898;DHT22;7019;50.766;4.474;2023-09-30T09:10:54;14.60;99.90
13898;DHT22;7019;50.766;4.474;2023-09-30T09:13:22;14.70;99.90
13898;DHT22;7019;50.766;4.474;2023-09-30T09:15:50;14.80;99.90
13898;DHT22;7019;50.766;4.474;2023-09-30T09:18:31;14.90;99.90
13898;DHT22;7019;50.766;4.474;2023-09-30T09:21:09;15.20;99.90
13898;DHT22;7019;50.766;4.474;2023-09-30T09:23:41;15.70;99.90
13898;DHT22;7019;50.766;4.474;2023-09-30T09:26:10;16.20;99.90
13898;DHT22;7019;50.766;4.474;2023-09-30T09:28:38;16.70;99.90
13898;DHT22;7019;50.766;4.474;2023-09-30T09:31:23;17.00;99.90
13898;DHT22;7019;50.766;4.474;2023-09-30T09:33:51;17.20;99.90
13898;DHT22;7019;50.766;4.474;2023-09-30T09:36:19;17.50;99.90
13898;DHT22;7019;50.766;4.474;2023-09-30T09:38:49;17.70;99.90
13898;DHT22;7019;50.766;4.474;2023-09-30T09:41:19;18.20;99.90
13898;DHT22;7019;50.766;4.474;2023-09-30T09:43:48;18.50;99.90
13898;DHT22;7019;50.766;4.474;2023-09-30T09:46:17;18.70;99.90
13898;DHT22;7019;50.766;4.474;2023-09-30T09:48:46;18.50;99.90
13898;DHT22;7019;50.766;4.474;2023-09-30T09:51:13;18.30;99.90
13898;DHT22;7019;50.766;4.474;2023-09-30T09:53:41;18.20;99.90
13898;DHT22;7019;50.766;4.474;2023-09-30T09:56:11;18.20;99.90
13898;DHT22;7019;50.766;4.474;2023-09-30T09:58:40;18.40;99.90
13898;DHT22;7019;50.766;4.474;2023-09-30T10:01:09;18.60;99.90
13898;DHT22;7019;50.766;4.474;2023-09-30T10:03:38;19.00;99.90
13898;DHT22;7019;50.766;4.474;2023-09-30T10:06:06;19.30;99.90
13898;DHT22;7019;50.766;4.474;2023-09-30T10:08:39;19.40;99.90
13898;DHT22;7019;50.766;4.474;2023-09-30T10:11:07;19.30;99.90
13898;DHT22;7019;50.766;4.474;2023-09-30T10:13:56;19.10;99.90
13898;DHT22;7019;50.766;4.474;2023-09-30T10:16:48;19.00;99.90
13898;DHT22;7019;50.766;4.474;2023-09-30T10:19:17;19.00;99.90
13898;DHT22;7019;50.766;4.474;2023-09-30T10:22:22;18.80;99.90
13898;DHT22;7019;50.766;4.474;2023-09-30T10:24:50;18.50;99.90
13898;DHT22;7019;50.766;4.474;2023-09-30T10:27:35;18.30;99.90
13898;DHT22;7019;50.766;4.474;2023-09-30T10:30:10;18.40;99.90
13898;DHT22;7019;50.766;4.474;2023-09-30T10:33:10;18.60;99.90
13898;DHT22;7019;50.766;4.474;2023-09-30T10:35:48;18.80;99.90
13898;DHT22;7019;50.766;4.474;2023-09-30T10:38:36;18.90;99.90
13898;DHT22;7019;50.766;4.474;2023-09-30T10:41:10;19.10;99.90
13898;DHT22;7019;50.766;4.474;2023-09-30T10:43:41;19.20;99.90
13898;DHT22;7019;50.766;4.474;2023-09-30T10:46:31;19.30;99.90
13898;DHT22;7019;50.766;4.474;2023-09-30T10:49:29;19.30;99.90
13898;DHT22;7019;50.766;4.474;2023-09-30T10:51:59;19.40;99.90
13898;DHT22;7019;50.766;4.474;2023-09-30T10:54:28;19.50;99.90
13898;DHT22;7019;50.766;4.474;2023-09-30T10:56:56;19.60;99.90
13898;DHT22;7019;50.766;4.474;2023-09-30T10:59:25;19.80;99.90
13898;DHT22;7019;50.766;4.474;2023-09-30T11:01:54;19.90;99.90
13898;DHT22;7019;50.766;4.474;2023-09-30T11:04:22;19.80;99.90
13898;DHT22;7019;50.766;4.474;2023-09-30T11:06:49;19.50;99.90
13898;DHT22;7019;50.766;4.474;2023-09-30T11:09:17;19.40;99.90
13898;DHT22;7019;50.766;4.474;2023-09-30T11:11:46;19.20;99.90
13898;DHT22;7019;50.766;4.474;2023-09-30T11:14:19;19.10;99.90
13898;DHT22;7019;50.766;4.474;2023-09-30T11:16:47;19.30;99.90
13898;DHT22;7019;50.766;4.474;2023-09-30T11:19:16;19.30;99.90
13898;DHT22;7019;50.766;4.474;2023-09-30T11:21:44;19.00;99.90
13898;DHT22;7019;50.766;4.474;2023-09-30T11:24:11;18.60;99.90
13898;DHT22;7019;50.766;4.474;2023-09-30T11:26:38;18.20;99.90
13898;DHT22;7019;50.766;4.474;2023-09-30T11:29:10;18.00;99.90
13898;DHT22;7019;50.766;4.474;2023-09-30T11:31:38;17.90;99.90
13898;DHT22;7019;50.766;4.474;2023-09-30T11:34:05;17.70;99.90
13898;DHT22;7019;50.766;4.474;2023-09-30T11:36:36;17.70;99.90
13898;DHT22;7019;50.766;4.474;2023-09-30T11:39:03;17.70;99.90
13898;DHT22;7019;50.766;4.474;2023-09-30T11:41:34;17.80;99.90
13898;DHT22;7019;50.766;4.474;2023-09-30T11:44:05;17.80;99.90
13898;DHT22;7019;50.766;4.474;2023-09-30T11:46:47;18.00;99.90
13898;DHT22;7019;50.766;4.474;2023-09-30T11:49:25;18.10;99.90
13898;DHT22;7019;50.766;4.474;2023-09-30T11:51:55;18.30;99.90
13898;DHT22;7019;50.766;4.474;2023-09-30T11:54:29;18.70;99.90
13898;DHT22;7019;50.766;4.474;2023-09-30T11:56:56;18.90;99.90
13898;DHT22;7019;50.766;4.474;2023-09-30T11:59:24;18.80;99.90
13898;DHT22;7019;50.766;4.474;2023-09-30T12:01:51;18.50;99.90
13898;DHT22;7019;50.766;4.474;2023-09-30T12:04:19;18.30;99.90
13898;DHT22;7019;50.766;4.474;2023-09-30T12:06:46;18.30;99.90
13898;DHT22;7019;50.766;4.474;2023-09-30T12:09:15;18.50;99.90
13898;DHT22;7019;50.766;4.474;2023-09-30T12:11:48;18.60;99.90
13898;DHT22;7019;50.766;4.474;2023-09-30T12:14:15;18.80;99.90
13898;DHT22;7019;50.766;4.474;2023-09-30T12:16:42;18.80;99.90
13898;DHT22;7019;50.766;4.474;2023-09-30T12:19:11;18.60;99.90
13898;DHT22;7019;50.766;4.474;2023-09-30T12:21:39;18.50;99.90
13898;DHT22;7019;50.766;4.474;2023-09-30T12:24:06;18.40;99.90
13898;DHT22;7019;50.766;4.474;2023-09-30T12:26:36;18.40;99.90
13898;DHT22;7019;50.766;4.474;2023-09-30T12:29:05;18.40;99.90
13898;DHT22;7019;50.766;4.474;2023-09-30T12:31:32;18.40;99.90
13898;DHT22;7019;50.766;4.474;2023-09-30T12:33:59;18.40;99.90
13898;DHT22;7019;50.766;4.474;2023-09-30T12:36:26;18.50;99.90
13898;DHT22;7019;50.766;4.474;2023-09-30T12:38:53;18.60;99.90
13898;DHT22;7019;50.766;4.474;2023-09-30T12:41:20;18.60;99.90
13898;DHT22;7019;50.766;4.474;2023-09-30T12:43:48;18.70;99.90
13898;DHT22;7019;50.766;4.474;2023-09-30T12:46:15;18.80;99.90
13898;DHT22;7019;50.766;4.474;2023-09-30T12:48:44;18.80;99.90
13898;DHT22;7019;50.766;4.474;2023-09-30T12:51:11;18.90;99.90
13898;DHT22;7019;50.766;4.474;2023-09-30T12:53:38;19.10;99.90
13898;DHT22;7019;50.766;4.474;2023-09-30T12:56:05;19.10;99.90
13898;DHT22;7019;50.766;4.474;2023-09-30T12:58:32;19.10;99.90
13898;DHT22;7019;50.766;4.474;2023-09-30T13:01:01;19.10;99.90
13898;DHT22;7019;50.766;4.474;2023-09-30T13:03:28;19.00;99.90
13898;DHT22;7019;50.766;4.474;2023-09-30T13:05:55;19.00;99.90
13898;DHT22;7019;50.766;4.474;2023-09-30T13:08:22;19.00;99.90
13898;DHT22;7019;50.766;4.474;2023-09-30T13:10:49;19.00;99.90
13898;DHT22;7019;50.766;4.474;2023-09-30T13:13:18;19.00;99.90
13898;DHT22;7019;50.766;4.474;2023-09-30T13:15:45;18.90;99.90
13898;DHT22;7019;50.766;4.474;2023-09-30T13:18:13;18.80;99.90
13898;DHT22;7019;50.766;4.474;2023-09-30T13:20:40;18.80;99.90
13898;DHT22;7019;50.766;4.474;2023-09-30T13:23:07;18.80;99.90
13898;DHT22;7019;50.766;4.474;2023-09-30T13:25:35;18.90;99.90
13898;DHT22;7019;50.766;4.474;2023-09-30T13:28:02;19.00;99.90
13898;DHT22;7019;50.766;4.474;2023-09-30T13:30:29;19.00;99.90
13898;DHT22;7019;50.766;4.474;2023-09-30T13:32:57;19.00;99.90
13898;DHT22;7019;50.766;4.474;2023-09-30T13:35:26;18.90;99.90
13898;DHT22;7019;50.766;4.474;2023-09-30T13:37:53;18.80;99.90
13898;DHT22;7019;50.766;4.474;2023-09-30T13:40:20;18.80;99.90
13898;DHT22;7019;50.766;4.474;2023-09-30T13:42:47;18.80;99.90
13898;DHT22;7019;50.766;4.474;2023-09-30T13:45:14;18.80;99.90
13898;DHT22;7019;50.766;4.474;2023-09-30T13:47:44;18.80;99.90
13898;DHT22;7019;50.766;4.474;2023-09-30T13:50:11;18.80;99.90
13898;DHT22;7019;50.766;4.474;2023-09-30T13:52:39;18.80;99.90
13898;DHT22;7019;50.766;4.474;2023-09-30T13:55:07;18.80;99.90
13898;DHT22;7019;50.766;4.474;2023-09-30T13:57:34;18.90;99.90
13898;DHT22;7019;50.766;4.474;2023-09-30T14:00:02;19.00;99.90
13898;DHT22;7019;50.766;4.474;2023-09-30T14:02:32;19.10;99.90
13898;DHT22;7019;50.766;4.474;2023-09-30T14:04:59;19.20;99.90
13898;DHT22;7019;50.766;4.474;2023-09-30T14:07:27;19.20;99.90
13898;DHT22;7019;50.766;4.474;2023-09-30T14:09:56;19.10;99.90
13898;DHT22;7019;50.766;4.474;2023-09-30T14:12:23;19.20;99.90
13898;DHT22;7019;50.766;4.474;2023-09-30T14:14:50;19.20;99.90
13898;DHT22;7019;50.766;4.474;2023-09-30T14:17:18;19.20;99.90
13898;DHT22;7019;50.766;4.474;2023-09-30T14:19:45;19.20;99.90
13898;DHT22;7019;50.766;4.474;2023-09-30T14:22:12;19.20;99.90
13898;DHT22;7019;50.766;4.474;2023-09-30T14:24:39;19.20;99.90
13898;DHT22;7019;50.766;4.474;2023-09-30T14:27:07;19.20;99.90
13898;DHT22;7019;50.766;4.474;2023-09-30T14:29:34;19.10;99.90
13898;DHT22;7019;50.766;4.474;2023-09-30T14:32:01;19.10;99.90
13898;DHT22;7019;50.766;4.474;2023-09-30T14:34:28;19.00;99.90
13898;DHT22;7019;50.766;4.474;2023-09-30T14:36:56;18.90;99.90
13898;DHT22;7019;50.766;4.474;2023-09-30T14:39:23;18.70;99.90
13898;DHT22;7019;50.766;4.474;2023-09-30T14:41:50;18.60;99.90
13898;DHT22;7019;50.766;4.474;2023-09-30T14:44:18;18.60;99.90
13898;DHT22;7019;50.766;4.474;2023-09-30T14:46:47;18.50;99.90
13898;DHT22;7019;50.766;4.474;2023-09-30T14:49:14;18.50;99.90
13898;DHT22;7019;50.766;4.474;2023-09-30T14:51:41;18.40;99.90
13898;DHT22;7019;50.766;4.474;2023-09-30T14:54:10;18.40;99.90
13898;DHT22;7019;50.766;4.474;2023-09-30T14:56:37;18.30;99.90
13898;DHT22;7019;50.766;4.474;2023-09-30T14:59:04;18.30;99.90
13898;DHT22;7019;50.766;4.474;2023-09-30T15:01:32;18.20;99.90
13898;DHT22;7019;50.766;4.474;2023-09-30T15:04:00;18.20;99.90
13898;DHT22;7019;50.766;4.474;2023-09-30T15:06:27;18.10;99.90
13898;DHT22;7019;50.766;4.474;2023-09-30T15:08:54;18.00;99.90
13898;DHT22;7019;50.766;4.474;2023-09-30T15:11:21;17.90;99.90
13898;DHT22;7019;50.766;4.474;2023-09-30T15:13:49;17.90;99.90
13898;DHT22;7019;50.766;4.474;2023-09-30T15:16:17;17.90;99.90
13898;DHT22;7019;50.766;4.474;2023-09-30T15:18:47;17.90;99.90
13898;DHT22;7019;50.766;4.474;2023-09-30T15:21:14;17.80;99.90
13898;DHT22;7019;50.766;4.474;2023-09-30T15:23:42;17.80;99.90
13898;DHT22;7019;50.766;4.474;2023-09-30T15:26:10;17.80;99.90
13898;DHT22;7019;50.766;4.474;2023-09-30T15:28:37;17.80;99.90
13898;DHT22;7019;50.766;4.474;2023-09-30T15:31:04;17.80;99.90
13898;DHT22;7019;50.766;4.474;2023-09-30T15:33:32;17.70;99.90
13898;DHT22;7019;50.766;4.474;2023-09-30T15:36:08;17.70;99.90
13898;DHT22;7019;50.766;4.474;2023-09-30T15:38:36;17.70;99.90
13898;DHT22;7019;50.766;4.474;2023-09-30T15:41:03;17.60;99.90
13898;DHT22;7019;50.766;4.474;2023-09-30T15:43:30;17.50;99.90
13898;DHT22;7019;50.766;4.474;2023-09-30T15:45:59;17.40;99.90
13898;DHT22;7019;50.766;4.474;2023-09-30T15:48:26;17.40;99.90
13898;DHT22;7019;50.766;4.474;2023-09-30T15:50:53;17.30;99.90
13898;DHT22;7019;50.766;4.474;2023-09-30T15:53:22;17.30;99.90
13898;DHT22;7019;50.766;4.474;2023-09-30T15:55:49;17.30;99.90
13898;DHT22;7019;50.766;4.474;2023-09-30T15:58:16;17.40;99.90